Time;durP1;ratioP1;P1;durP2;ratioP2;P2;SDS_P1;SDS_P2;PMS_P1;PMS_P2;Temp;Humidity;BMP_temperature;BMP_pressure;BME280_temperature;BME280_humidity;BME280_pressure;Samples;Min_cycle;Max_cycle;Signal;HPM_P1;HPM_P2
2022/07/25 00:02:27;;;;;;;8.10;6.88;;;;;;;22.88;100.00;98758.91;5095374;28;20191;-78
2022/07/25 00:04:55;;;;;;;10.30;6.55;;;;;;;22.92;100.00;98752.09;5095555;28;20191;-78
2022/07/25 00:07:26;;;;;;;8.18;6.85;;;;;;;22.99;100.00;98753.03;5092328;28;20191;-79
2022/07/25 00:09:55;;;;;;;8.52;6.70;;;;;;;23.11;100.00;98751.53;5094977;28;20207;-78
2022/07/25 00:12:23;;;;;;;8.65;7.03;;;;;;;23.06;100.00;98747.69;5095242;28;20535;-78
2022/07/25 00:14:52;;;;;;;7.57;6.78;;;;;;;22.95;100.00;98743.63;5095303;28;20227;-78
2022/07/25 00:17:20;;;;;;;8.00;6.65;;;;;;;22.85;100.00;98743.91;5094940;28;20231;-79
2022/07/25 00:19:48;;;;;;;7.78;6.80;;;;;;;23.00;100.00;98733.09;5093109;28;20295;-78
2022/07/25 00:22:17;;;;;;;7.35;6.53;;;;;;;23.02;100.00;98725.63;5086154;28;20199;-79
2022/07/25 00:24:47;;;;;;;7.00;6.30;;;;;;;22.83;100.00;98718.09;5097317;27;20211;-79
2022/07/25 00:27:15;;;;;;;6.68;6.00;;;;;;;22.65;100.00;98718.47;5095005;28;20192;-78
2022/07/25 00:29:44;;;;;;;7.50;6.70;;;;;;;22.61;100.00;98727.13;5094911;28;20204;-78
2022/07/25 00:32:12;;;;;;;7.68;6.97;;;;;;;22.36;100.00;98727.38;5095071;28;20195;-78
2022/07/25 00:34:40;;;;;;;8.57;6.88;;;;;;;22.36;100.00;98721.97;5093594;28;20215;-79
2022/07/25 00:37:09;;;;;;;9.20;6.45;;;;;;;22.36;100.00;98721.97;5095138;27;20302;-78
2022/07/25 00:39:37;;;;;;;8.10;7.30;;;;;;;22.19;100.00;98717.75;5088127;28;20207;-79
2022/07/25 00:42:07;;;;;;;7.28;6.57;;;;;;;22.41;100.00;98718.75;5094458;28;20219;-79
2022/07/25 00:44:37;;;;;;;9.80;7.32;;;;;;;22.08;100.00;98713.63;5073687;28;20226;-78
2022/07/25 00:47:05;;;;;;;7.10;6.13;;;;;;;22.12;100.00;98708.72;5091840;28;20187;-78
2022/07/25 00:49:34;;;;;;;8.27;7.47;;;;;;;22.00;100.00;98708.28;5092695;28;20279;-79
2022/07/25 00:52:04;;;;;;;8.88;6.90;;;;;;;22.08;100.00;98697.44;5093151;28;20228;-78
2022/07/25 00:54:33;;;;;;;9.02;8.13;;;;;;;21.96;100.00;98698.88;5094242;28;20204;-78
2022/07/25 00:57:01;;;;;;;8.55;7.50;;;;;;;22.11;100.00;98701.66;5093144;28;20195;-79
2022/07/25 00:59:31;;;;;;;7.85;7.15;;;;;;;22.14;100.00;98698.59;5094061;28;20192;-78
2022/07/25 01:01:59;;;;;;;7.97;7.13;;;;;;;21.95;100.00;98703.44;5094219;28;20275;-78
2022/07/25 01:04:31;;;;;;;7.57;6.85;;;;;;;22.02;100.00;98694.63;5094104;28;20227;-79
2022/07/25 01:07:00;;;;;;;7.22;6.50;;;;;;;21.91;100.00;98690.53;5087547;28;20191;-78
2022/07/25 01:09:29;;;;;;;7.38;6.68;;;;;;;21.96;100.00;98696.19;5093250;28;20230;-79
2022/07/25 01:11:57;;;;;;;8.50;7.40;;;;;;;21.79;100.00;98691.94;5093970;28;20278;-78
2022/07/25 01:14:26;;;;;;;8.50;7.45;;;;;;;21.81;100.00;98687.22;5093687;28;20248;-79
2022/07/25 01:16:55;;;;;;;8.40;7.60;;;;;;;21.90;100.00;98688.81;5089228;28;20191;-78
2022/07/25 01:19:23;;;;;;;12.02;7.18;;;;;;;21.83;100.00;98679.81;5088316;28;20223;-78
2022/07/25 01:21:54;;;;;;;7.78;6.97;;;;;;;21.82;100.00;98683.53;5092493;28;20217;-78
2022/07/25 01:24:22;;;;;;;9.30;7.15;;;;;;;21.66;100.00;98677.22;5091102;28;20195;-79
2022/07/25 01:26:51;;;;;;;8.48;7.25;;;;;;;21.65;100.00;98674.72;5089938;28;20658;-79
2022/07/25 01:29:19;;;;;;;8.60;7.32;;;;;;;21.56;100.00;98678.50;5094004;28;20224;-78
2022/07/25 01:31:48;;;;;;;7.75;6.72;;;;;;;21.48;100.00;98679.38;5091576;28;20252;-78
2022/07/25 01:34:16;;;;;;;7.63;6.93;;;;;;;21.34;100.00;98672.94;5091567;28;20647;-78
2022/07/25 01:36:44;;;;;;;8.65;7.75;;;;;;;21.55;100.00;98671.44;5092307;28;20219;-78
2022/07/25 01:39:14;;;;;;;9.82;7.30;;;;;;;21.54;100.00;98673.28;5090310;28;20220;-79
2022/07/25 01:41:45;;;;;;;8.23;7.43;;;;;;;21.47;100.00;98677.72;5093597;28;20202;-78
2022/07/25 01:44:16;;;;;;;7.78;7.07;;;;;;;21.34;100.00;98672.94;5093247;28;20704;-78
2022/07/25 01:46:44;;;;;;;8.20;7.22;;;;;;;21.41;100.00;98673.88;5092582;28;20291;-78
2022/07/25 01:49:12;;;;;;;8.00;7.20;;;;;;;21.45;100.00;98670.84;5091489;28;20650;-78
2022/07/25 01:51:41;;;;;;;8.73;7.30;;;;;;;21.27;100.00;98671.97;5084237;28;20693;-78
2022/07/25 01:54:09;;;;;;;8.32;7.13;;;;;;;21.27;100.00;98669.25;5090922;28;20274;-78
2022/07/25 01:56:43;;;;;;;8.80;7.30;;;;;;;21.35;100.00;98666.53;5093179;28;20662;-78
2022/07/25 01:59:15;;;;;;;9.07;6.85;;;;;;;21.10;100.00;98675.72;5093204;28;20207;-78
2022/07/25 02:01:44;;;;;;;8.07;7.25;;;;;;;21.06;100.00;98675.25;5092982;28;20206;-78
2022/07/25 02:04:12;;;;;;;12.98;7.88;;;;;;;21.07;100.00;98671.53;5090657;28;20300;-78
2022/07/25 02:06:41;;;;;;;8.38;7.55;;;;;;;21.29;100.00;98671.78;5090214;28;20275;-78
2022/07/25 02:09:10;;;;;;;9.40;7.80;;;;;;;21.18;100.00;98664.06;5092657;28;20196;-78
2022/07/25 02:11:40;;;;;;;8.38;7.57;;;;;;;20.97;100.00;98657.47;5090194;28;20184;-78
2022/07/25 02:14:09;;;;;;;8.50;7.57;;;;;;;21.14;100.00;98667.13;5091327;28;20196;-78
2022/07/25 02:16:37;;;;;;;8.13;7.32;;;;;;;21.01;100.00;98653.38;5090793;28;20195;-78
2022/07/25 02:19:05;;;;;;;8.27;7.32;;;;;;;21.11;100.00;98650.47;5091965;28;20215;-78
2022/07/25 02:21:34;;;;;;;7.80;6.97;;;;;;;21.15;100.00;98652.63;5089988;28;20211;-78
2022/07/25 02:24:02;;;;;;;8.25;7.45;;;;;;;21.03;100.00;98647.81;5092799;28;20279;-78
2022/07/25 02:26:31;;;;;;;8.88;7.28;;;;;;;21.13;100.00;98648.44;5088552;28;20195;-78
2022/07/25 02:29:01;;;;;;;8.60;7.80;;;;;;;20.84;100.00;98643.72;5090106;28;20199;-78
2022/07/25 02:31:29;;;;;;;8.45;7.63;;;;;;;20.91;100.00;98649.25;5092688;28;20226;-78
2022/07/25 02:33:57;;;;;;;8.43;7.63;;;;;;;20.96;100.00;98636.94;5091706;28;20192;-78
2022/07/25 02:36:26;;;;;;;8.30;7.55;;;;;;;20.94;100.00;98638.97;5086857;28;20275;-78
2022/07/25 02:38:54;;;;;;;11.05;8.32;;;;;;;20.86;100.00;98631.78;5092757;28;20306;-78
2022/07/25 02:41:22;;;;;;;8.80;7.90;;;;;;;20.89;100.00;98637.81;5087959;28;20267;-79
2022/07/25 02:43:51;;;;;;;8.50;7.70;;;;;;;20.99;100.00;98633.88;5092887;28;20195;-78
2022/07/25 02:46:20;;;;;;;9.02;8.13;;;;;;;20.98;100.00;98624.13;5092474;28;20192;-78
2022/07/25 02:48:49;;;;;;;9.07;8.18;;;;;;;20.94;100.00;98616.56;5095079;28;20195;-78
2022/07/25 02:51:17;;;;;;;9.85;8.25;;;;;;;20.83;100.00;98613.25;5091703;28;20231;-78
2022/07/25 02:53:46;;;;;;;8.85;7.95;;;;;;;20.83;100.00;98615.13;5092659;28;20202;-78
2022/07/25 02:56:25;;;;;;;7.72;7.03;;;;;;;20.71;100.00;98603.91;5092590;28;20191;-78
2022/07/25 02:58:58;;;;;;;9.40;7.55;;;;;;;20.82;100.00;98610.75;5092527;28;20215;-79
2022/07/25 03:01:28;;;;;;;10.98;9.68;;;;;;;20.69;100.00;98613.19;5092245;28;20203;-78
2022/07/25 03:03:56;;;;;;;12.23;9.35;;;;;;;20.59;100.00;98613.41;5092466;28;20229;-78
2022/07/25 03:06:25;;;;;;;10.93;9.27;;;;;;;20.52;100.00;98617.78;5088765;28;20196;-78
2022/07/25 03:08:53;;;;;;;9.90;8.65;;;;;;;20.29;100.00;98623.91;5091365;28;20187;-78
2022/07/25 03:11:21;;;;;;;9.02;7.95;;;;;;;20.51;100.00;98621.50;5086899;28;20196;-78
2022/07/25 03:13:50;;;;;;;9.52;8.02;;;;;;;20.36;100.00;98610.59;5092149;28;20291;-78
2022/07/25 03:16:18;;;;;;;8.30;7.50;;;;;;;20.43;100.00;98616.16;5092289;28;20275;-78
2022/07/25 03:18:48;;;;;;;9.15;8.23;;;;;;;20.57;100.00;98612.75;5093957;28;20615;-78
2022/07/25 03:21:19;;;;;;;9.75;8.27;;;;;;;20.47;100.00;98615.66;5092095;28;20275;-78
2022/07/25 03:23:48;;;;;;;9.35;8.10;;;;;;;20.36;100.00;98610.59;5096283;28;20192;-78
2022/07/25 03:26:20;;;;;;;10.00;9.02;;;;;;;20.35;100.00;98611.59;5089355;28;20227;-78
2022/07/25 03:28:48;;;;;;;10.18;9.13;;;;;;;20.28;100.00;98613.34;5098201;27;20250;-78
2022/07/25 03:31:16;;;;;;;11.00;9.05;;;;;;;20.15;100.00;98611.16;5093915;28;20204;-78
2022/07/25 03:33:44;;;;;;;9.70;8.37;;;;;;;20.11;100.00;98601.78;5091975;28;20214;-78
2022/07/25 03:36:14;;;;;;;10.30;8.90;;;;;;;20.14;100.00;98605.97;5094423;28;20222;-78
2022/07/25 03:38:43;;;;;;;10.47;8.30;;;;;;;20.19;100.00;98600.91;5095592;28;20247;-79
2022/07/25 03:41:12;;;;;;;9.05;8.18;;;;;;;20.09;100.00;98601.13;5091599;28;20200;-78
2022/07/25 03:43:40;;;;;;;9.50;8.60;;;;;;;20.01;100.00;98591.22;5095906;28;20374;-79
2022/07/25 03:46:09;;;;;;;10.27;9.00;;;;;;;19.75;100.00;98600.50;5094884;28;20198;-79
2022/07/25 03:48:37;;;;;;;11.17;8.17;;;;;;;19.93;100.00;98588.53;5097809;27;20218;-79
2022/07/25 03:51:05;;;;;;;9.10;8.20;;;;;;;19.90;100.00;98586.22;5095716;28;20235;-79
2022/07/25 03:54:00;;;;;;;9.23;8.33;;;;;;;19.87;100.00;98583.00;5093132;28;20191;-78
2022/07/25 03:56:24;;;;;;;9.70;8.80;;;;;;;19.83;100.00;98589.75;5095538;28;20208;-79
2022/07/25 03:58:52;;;;;;;9.40;8.50;;;;;;;19.62;100.00;98582.22;5094004;28;20192;-78
2022/07/25 04:01:21;;;;;;;10.07;8.73;;;;;;;19.61;100.00;98583.25;5095639;28;20271;-78
2022/07/25 04:03:49;;;;;;;9.87;8.37;;;;;;;19.59;100.00;98579.84;5086350;28;20210;-78
2022/07/25 04:06:17;;;;;;;10.33;8.40;;;;;;;19.48;100.00;98582.84;5095743;27;20195;-78
2022/07/25 04:08:47;;;;;;;9.50;8.60;;;;;;;19.43;100.00;98578.84;5095413;28;20203;-78
2022/07/25 04:11:16;;;;;;;9.63;8.67;;;;;;;19.47;100.00;98575.81;5097584;28;20203;-78
2022/07/25 04:13:44;;;;;;;9.27;8.37;;;;;;;19.64;100.00;98578.34;5098441;28;20195;-79
2022/07/25 04:16:13;;;;;;;9.80;8.80;;;;;;;19.67;100.00;98577.16;5096109;28;20211;-78
2022/07/25 04:18:49;;;;;;;11.23;9.10;;;;;;;19.75;100.00;98570.94;5098164;28;20234;-78
2022/07/25 04:21:19;;;;;;;10.00;8.97;;;;;;;19.70;100.00;98574.16;5096160;28;20196;-78
2022/07/25 04:23:49;;;;;;;10.33;9.33;;;;;;;19.50;100.00;98572.81;5095936;28;20195;-80
2022/07/25 04:26:18;;;;;;;10.83;8.93;;;;;;;19.54;100.00;98560.72;5096426;28;20278;-81
2022/07/25 04:28:47;;;;;;;10.63;9.27;;;;;;;19.58;100.00;98562.91;5092674;28;20211;-79
2022/07/25 04:31:15;;;;;;;10.87;9.57;;;;;;;19.60;100.00;98560.06;5092545;28;20206;-78
2022/07/25 04:33:44;;;;;;;10.33;9.17;;;;;;;19.71;100.00;98562.41;5095675;28;20194;-78
2022/07/25 04:36:13;;;;;;;10.00;9.00;;;;;;;19.62;100.00;98563.41;5094359;28;20214;-79
2022/07/25 04:38:41;;;;;;;10.73;9.20;;;;;;;19.70;100.00;98560.72;5095205;28;20210;-78
2022/07/25 04:41:11;;;;;;;10.57;9.47;;;;;;;19.81;100.00;98556.84;5097555;27;20219;-78
2022/07/25 04:43:41;;;;;;;10.07;9.00;;;;;;;19.89;100.00;98557.66;5092739;28;20210;-79
2022/07/25 04:46:18;;;;;;;10.57;8.97;;;;;;;19.90;100.00;98551.25;5096948;27;20222;-79
2022/07/25 04:48:47;;;;;;;10.33;8.70;;;;;;;20.07;100.00;98554.72;5094939;28;20290;-79
2022/07/25 04:51:15;;;;;;;10.23;8.53;;;;;;;20.08;100.00;98542.97;5093169;28;20249;-79
2022/07/25 04:53:44;;;;;;;9.80;8.80;;;;;;;20.22;100.00;98539.53;5091697;28;20275;-80
2022/07/25 04:56:15;;;;;;;11.53;9.07;;;;;;;20.45;100.00;98542.31;5094740;28;20745;-79
2022/07/25 04:58:44;;;;;;;10.00;9.00;;;;;;;20.37;100.00;98539.66;5092636;28;20270;-79
2022/07/25 05:01:12;;;;;;;10.07;8.93;;;;;;;20.62;100.00;98535.00;5092327;28;20218;-79
2022/07/25 05:03:42;;;;;;;9.47;8.47;;;;;;;20.56;100.00;98533.03;5088171;28;20200;-79
2022/07/25 05:06:17;;;;;;;10.05;9.10;;;;;;;20.50;100.00;98531.88;5092751;28;20199;-79
2022/07/25 05:08:46;;;;;;;10.50;8.43;;;;;;;20.42;100.00;98529.19;5091802;28;20191;-79
2022/07/25 05:11:15;;;;;;;9.45;8.55;;;;;;;20.45;100.00;98541.47;5088543;28;20210;-79
2022/07/25 05:13:44;;;;;;;10.02;8.27;;;;;;;20.53;100.00;98538.75;5090265;28;20195;-79
2022/07/25 05:16:12;;;;;;;9.90;8.90;;;;;;;20.50;100.00;98537.25;5091287;28;20206;-80
2022/07/25 05:18:41;;;;;;;9.87;8.80;;;;;;;20.57;100.00;98538.22;5096330;27;20265;-79
2022/07/25 05:21:11;;;;;;;9.87;8.87;;;;;;;20.52;100.00;98535.22;5093497;28;20219;-79
2022/07/25 05:23:39;;;;;;;10.23;8.83;;;;;;;20.63;100.00;98533.97;5093864;28;20278;-79
2022/07/25 05:26:08;;;;;;;10.73;8.77;;;;;;;20.62;100.00;98523.41;5091728;28;20251;-79
2022/07/25 05:28:38;;;;;;;9.40;8.13;;;;;;;20.85;100.00;98524.28;5091416;28;20231;-79
2022/07/25 05:31:06;;;;;;;9.83;8.33;;;;;;;21.00;100.00;98522.47;5091714;28;20203;-79
2022/07/25 05:33:34;;;;;;;11.30;8.30;;;;;;;21.09;100.00;98525.91;5096935;27;20204;-79
2022/07/25 05:36:05;;;;;;;9.60;8.70;;;;;;;21.30;100.00;98525.28;5092040;28;20200;-79
2022/07/25 05:38:33;;;;;;;10.02;8.57;;;;;;;21.32;100.00;98517.84;5092196;28;20270;-80
2022/07/25 05:41:01;;;;;;;9.70;8.60;;;;;;;21.42;100.00;98511.19;5091797;28;20238;-79
2022/07/25 05:43:29;;;;;;;10.13;8.52;;;;;;;21.68;100.00;98508.03;5093662;28;20191;-79
2022/07/25 05:46:02;;;;;;;8.95;8.05;;;;;;;21.84;100.00;98515.13;5093219;28;20195;-79
2022/07/25 05:48:31;;;;;;;9.75;8.32;;;;;;;22.07;100.00;98508.81;5093049;28;20196;-79
2022/07/25 05:50:59;;;;;;;10.00;7.80;;;;;;;22.21;100.00;98502.59;5092373;28;20215;-79
2022/07/25 05:53:27;;;;;;;9.75;8.75;;;;;;;22.29;100.00;98505.16;5091844;28;20211;-79
2022/07/25 05:55:56;;;;;;;9.50;7.85;;;;;;;22.44;100.00;98503.28;5093461;28;20274;-79
2022/07/25 05:58:25;;;;;;;8.68;7.88;;;;;;;22.57;100.00;98497.19;5091254;28;20215;-80
2022/07/25 06:00:57;;;;;;;9.00;8.10;;;;;;;22.69;100.00;98501.06;5093003;28;20215;-80
2022/07/25 06:03:27;;;;;;;10.35;8.20;;;;;;;22.78;100.00;98499.91;5092096;28;20250;-79
2022/07/25 06:05:56;;;;;;;11.30;8.65;;;;;;;22.75;100.00;98497.59;5093124;28;20233;-79
2022/07/25 06:08:27;;;;;;;8.60;7.72;;;;;;;22.87;100.00;98494.41;5094171;27;20199;-79
2022/07/25 06:10:56;;;;;;;10.30;8.63;;;;;;;23.06;100.00;98491.88;5093303;28;20199;-80
2022/07/25 06:13:24;;;;;;;9.15;8.20;;;;;;;23.11;100.00;98492.16;5090229;28;20192;-80
2022/07/25 06:15:55;;;;;;;10.70;7.75;;;;;;;23.25;100.00;98495.78;5093092;28;20191;-79
2022/07/25 06:18:23;;;;;;;8.52;7.63;;;;;;;23.41;100.00;98495.50;5092567;28;20195;-80
2022/07/25 06:20:53;;;;;;;8.60;7.80;;;;;;;23.64;100.00;98491.72;5086989;28;20223;-79
2022/07/25 06:23:21;;;;;;;8.00;7.30;;;;;;;23.63;100.00;98484.66;5092018;28;20279;-79
2022/07/25 06:25:54;;;;;;;7.90;7.20;;;;;;;23.76;100.00;98489.34;5091296;28;20200;-79
2022/07/25 06:28:22;;;;;;;9.88;7.97;;;;;;;23.90;100.00;98489.19;5086792;28;20202;-79
2022/07/25 06:30:51;;;;;;;9.43;8.10;;;;;;;23.88;100.00;98487.72;5093101;28;20198;-80
2022/07/25 06:33:19;;;;;;;10.05;7.82;;;;;;;23.92;100.00;98484.41;5091303;28;20199;-79
2022/07/25 06:35:47;;;;;;;8.13;7.20;;;;;;;24.06;100.00;98484.50;5093175;28;20195;-79
2022/07/25 06:38:17;;;;;;;8.45;7.65;;;;;;;24.08;100.00;98490.53;5088901;28;20200;-79
2022/07/25 06:40:46;;;;;;;8.43;7.68;;;;;;;24.26;100.00;98485.41;5073607;28;20631;-79
2022/07/25 06:43:14;;;;;;;8.45;7.65;;;;;;;24.32;100.00;98484.66;5093304;28;20192;-80
2022/07/25 06:45:46;;;;;;;8.85;7.63;;;;;;;24.32;100.00;98490.06;5090858;28;20206;-80
2022/07/25 06:48:14;;;;;;;8.82;8.02;;;;;;;24.41;100.00;98483.41;5093621;28;20198;-79
2022/07/25 06:50:43;;;;;;;8.45;7.65;;;;;;;24.65;100.00;98470.38;5089768;28;20231;-79
2022/07/25 06:53:11;;;;;;;8.63;7.82;;;;;;;24.85;100.00;98476.66;5091637;28;20192;-80
2022/07/25 06:55:41;;;;;;;8.63;7.82;;;;;;;24.85;100.00;98476.66;5094063;28;20196;-79
2022/07/25 06:58:09;;;;;;;8.35;7.55;;;;;;;24.81;100.00;98475.41;5096610;28;20662;-79
2022/07/25 07:00:38;;;;;;;8.43;7.63;;;;;;;24.96;100.00;98473.31;5099034;27;20204;-79
2022/07/25 07:03:06;;;;;;;9.45;7.75;;;;;;;25.10;100.00;98468.78;5096615;28;20195;-79
2022/07/25 07:05:36;;;;;;;9.48;7.85;;;;;;;25.22;98.97;98469.00;5091212;28;20223;-79
2022/07/25 07:08:05;;;;;;;10.02;8.25;;;;;;;25.20;98.79;98469.22;5094398;28;20198;-79
2022/07/25 07:10:34;;;;;;;8.80;8.00;;;;;;;25.35;96.75;98458.97;5096706;28;20270;-79
2022/07/25 07:13:06;;;;;;;8.35;7.38;;;;;;;25.37;96.62;98465.00;5096510;28;20218;-79
2022/07/25 07:15:36;;;;;;;7.97;7.28;;;;;;;25.39;98.11;98465.66;5075481;28;20262;-79
2022/07/25 07:18:05;;;;;;;8.95;7.93;;;;;;;25.61;96.31;98462.69;5058158;28;20183;-79
2022/07/25 07:20:33;;;;;;;8.60;7.80;;;;;;;25.62;95.08;98464.34;5096421;28;20233;-79
2022/07/25 07:23:01;;;;;;;8.68;7.90;;;;;;;25.61;95.04;98466.25;5095120;28;20191;-79
2022/07/25 07:25:30;;;;;;;9.13;7.85;;;;;;;25.56;96.96;98459.75;5098882;27;20554;-79
2022/07/25 07:27:58;;;;;;;8.60;7.63;;;;;;;25.68;97.31;98450.78;5096034;28;20227;-80
2022/07/25 07:30:28;;;;;;;9.05;7.88;;;;;;;25.86;97.11;98443.88;5077495;28;20188;-79
2022/07/25 07:33:18;;;;;;;8.77;7.97;;;;;;;25.91;95.92;98447.63;5096331;28;20199;-80
2022/07/25 07:35:46;;;;;;;8.00;7.30;;;;;;;25.99;94.02;98441.13;5058866;28;20203;-79
2022/07/25 07:38:15;;;;;;;9.77;7.72;;;;;;;25.99;92.84;98449.25;5094952;28;20200;-79
2022/07/25 07:40:43;;;;;;;7.97;7.18;;;;;;;26.05;93.35;98444.84;5095670;28;20200;-79
2022/07/25 07:43:11;;;;;;;8.32;7.40;;;;;;;26.29;92.38;98440.56;5092782;28;20255;-80
2022/07/25 07:45:42;;;;;;;8.70;7.90;;;;;;;26.44;92.43;98444.72;5095530;28;20203;-79
2022/07/25 07:48:10;;;;;;;8.05;7.20;;;;;;;26.40;91.61;98440.75;5061130;28;20191;-79
2022/07/25 07:50:39;;;;;;;9.10;8.13;;;;;;;26.33;91.78;98436.34;5095423;28;20203;-79
2022/07/25 07:53:09;;;;;;;8.35;7.55;;;;;;;26.31;91.58;98446.63;5091689;28;20282;-80
2022/07/25 07:55:43;;;;;;;8.15;7.40;;;;;;;26.44;91.03;98444.72;5095414;28;20188;-79
2022/07/25 07:58:14;;;;;;;8.68;7.82;;;;;;;26.63;91.48;98448.31;5095304;28;20192;-79
2022/07/25 08:00:46;;;;;;;9.27;7.78;;;;;;;26.82;90.61;98451.97;5059980;28;20184;-80
2022/07/25 08:03:18;;;;;;;9.50;7.93;;;;;;;26.71;89.93;98444.53;5089773;28;20234;-79
2022/07/25 08:05:47;;;;;;;8.77;7.88;;;;;;;26.72;91.01;98446.19;5092752;28;20188;-79
2022/07/25 08:08:16;;;;;;;8.55;7.70;;;;;;;27.01;89.51;98437.38;5091970;28;20245;-80
2022/07/25 08:10:47;;;;;;;8.82;8.00;;;;;;;27.10;88.66;98446.97;5095362;28;20223;-79
2022/07/25 08:13:19;;;;;;;9.13;8.32;;;;;;;27.45;86.17;98441.03;5092630;28;20192;-79
2022/07/25 08:15:51;;;;;;;9.40;7.80;;;;;;;27.54;85.95;98442.41;5092245;28;20208;-79
2022/07/25 08:18:20;;;;;;;9.73;8.00;;;;;;;27.58;84.77;98438.16;5095364;28;20195;-80
2022/07/25 08:20:49;;;;;;;8.93;7.85;;;;;;;27.74;84.07;98433.22;5095057;28;20207;-79
2022/07/25 08:23:19;;;;;;;9.70;7.78;;;;;;;27.67;85.09;98438.72;5092413;28;20219;-79
2022/07/25 08:25:48;;;;;;;8.82;7.95;;;;;;;27.70;84.53;98442.88;5089783;28;20658;-79
2022/07/25 08:28:16;;;;;;;8.70;7.90;;;;;;;27.72;82.45;98438.06;5094709;28;20196;-79
2022/07/25 08:30:44;;;;;;;9.63;7.70;;;;;;;27.88;83.43;98426.56;5094951;28;20235;-80
2022/07/25 08:33:15;;;;;;;9.93;8.25;;;;;;;28.13;82.43;98434.63;5090253;28;20274;-79
2022/07/25 08:35:47;;;;;;;9.20;8.13;;;;;;;28.28;80.54;98442.41;5094591;28;20210;-79
2022/07/25 08:38:15;;;;;;;9.25;8.15;;;;;;;28.09;83.15;98442.44;5093588;28;20275;-79
2022/07/25 08:40:44;;;;;;;9.23;8.27;;;;;;;28.05;84.60;98437.66;5092062;28;20200;-79
2022/07/25 08:43:13;;;;;;;9.80;8.77;;;;;;;27.91;85.22;98432.41;5094453;28;20222;-79
2022/07/25 08:45:45;;;;;;;8.75;7.85;;;;;;;28.18;83.20;98427.47;5094734;28;20192;-80
2022/07/25 08:48:17;;;;;;;10.02;9.02;;;;;;;28.14;82.81;98433.56;5088665;28;20196;-79
2022/07/25 08:50:46;;;;;;;9.10;8.07;;;;;;;28.42;83.24;98425.69;5094463;28;20216;-79
2022/07/25 08:53:16;;;;;;;10.02;8.98;;;;;;;28.28;81.29;98428.78;5092824;28;20200;-79
2022/07/25 08:56:00;;;;;;;8.73;7.82;;;;;;;28.59;80.30;98441.41;5096572;27;20282;-80
2022/07/25 08:58:37;;;;;;;9.18;8.32;;;;;;;28.50;80.99;98427.25;5093953;28;20256;-79
2022/07/25 09:01:06;;;;;;;9.10;8.20;;;;;;;28.68;81.98;98420.94;5092397;28;20274;-79
2022/07/25 09:03:36;;;;;;;9.52;8.30;;;;;;;29.13;80.39;98420.44;5093937;28;20303;-79
2022/07/25 09:06:18;;;;;;;9.70;8.70;;;;;;;29.26;78.78;98422.94;5054729;28;20211;-80
2022/07/25 09:08:54;;;;;;;10.73;8.57;;;;;;;29.30;79.93;98405.84;5093587;28;20196;-79
2022/07/25 09:11:31;;;;;;;9.55;8.65;;;;;;;29.41;79.77;98408.81;5088930;28;20233;-79
2022/07/25 09:14:00;;;;;;;9.43;8.43;;;;;;;29.63;75.68;98405.28;5094204;28;20638;-79
2022/07/25 09:16:30;;;;;;;8.80;8.00;;;;;;;29.69;75.44;98399.91;5093473;28;20219;-80
2022/07/25 09:19:12;;;;;;;8.93;8.13;;;;;;;29.89;71.50;98398.44;5093879;28;20274;-79
2022/07/25 09:21:42;;;;;;;11.80;8.60;;;;;;;30.33;70.54;98400.72;5092707;28;20191;-79
2022/07/25 09:24:14;;;;;;;10.55;8.35;;;;;;;30.44;71.61;98392.47;5094069;28;20195;-79
2022/07/25 09:26:48;;;;;;;11.05;8.20;;;;;;;30.63;69.91;98401.28;5095894;27;20188;-79
2022/07/25 09:29:22;;;;;;;8.63;7.72;;;;;;;30.63;68.96;98395.81;5094014;28;20196;-79
2022/07/25 09:31:50;;;;;;;9.48;8.55;;;;;;;30.28;70.26;98398.69;5093875;28;20200;-79
2022/07/25 09:34:35;;;;;;;9.10;8.15;;;;;;;30.27;71.63;98386.13;5093537;28;20287;-79
2022/07/25 09:37:05;;;;;;;10.02;8.90;;;;;;;29.89;74.02;98387.53;5094233;28;20191;-79
2022/07/25 09:39:35;;;;;;;10.38;9.05;;;;;;;30.17;73.63;98386.75;5093495;28;20267;-79
2022/07/25 09:42:23;;;;;;;10.10;9.07;;;;;;;30.26;73.05;98392.66;5093439;28;20247;-79
2022/07/25 09:45:08;;;;;;;9.48;8.50;;;;;;;30.66;71.64;98386.31;5093550;28;20645;-80
2022/07/25 09:47:50;;;;;;;12.68;8.90;;;;;;;30.94;70.55;98369.81;5059153;28;20194;-80
2022/07/25 09:50:22;;;;;;;11.05;9.18;;;;;;;31.13;68.83;98380.50;5091251;28;20195;-80
2022/07/25 09:52:51;;;;;;;10.23;9.23;;;;;;;31.36;68.02;98379.50;5092658;28;20440;-79
2022/07/25 09:55:20;;;;;;;9.48;8.55;;;;;;;31.67;66.18;98373.41;5093250;28;20211;-80
2022/07/25 09:57:51;;;;;;;10.27;8.75;;;;;;;31.45;65.23;98365.13;5093312;28;20248;-79
2022/07/25 10:00:22;;;;;;;10.15;9.10;;;;;;;31.23;67.32;98361.53;5092935;28;20192;-80
2022/07/25 10:03:01;;;;;;;10.02;9.07;;;;;;;31.23;66.55;98358.81;5089162;28;20254;-79
2022/07/25 10:05:48;;;;;;;11.82;8.90;;;;;;;31.28;66.09;98358.91;5092937;28;20290;-79
2022/07/25 10:08:18;;;;;;;9.80;8.80;;;;;;;31.45;66.14;98345.97;5091828;28;20199;-80
2022/07/25 10:10:46;;;;;;;9.55;8.60;;;;;;;31.79;65.20;98345.91;5092854;28;20192;-80
2022/07/25 10:13:17;;;;;;;9.82;8.90;;;;;;;31.90;62.63;98347.69;5093160;28;20191;-80
2022/07/25 10:15:48;;;;;;;11.75;8.52;;;;;;;32.06;60.71;98343.22;5087407;28;20200;-79
2022/07/25 10:18:20;;;;;;;10.80;8.75;;;;;;;32.22;59.94;98336.78;5093028;28;20190;-79
2022/07/25 10:20:51;;;;;;;10.18;8.65;;;;;;;32.56;56.94;98337.44;5091882;28;20195;-80
2022/07/25 10:23:23;;;;;;;11.02;8.50;;;;;;;32.35;58.79;98332.84;5091284;28;20219;-80
2022/07/25 10:26:03;;;;;;;10.18;9.15;;;;;;;32.13;58.90;98330.13;5091609;28;20216;-79
2022/07/25 10:28:41;;;;;;;9.20;8.27;;;;;;;32.33;58.17;98324.91;5057284;28;20693;-79
2022/07/25 10:31:20;;;;;;;9.32;7.72;;;;;;;32.66;56.53;98314.75;5092894;28;20199;-79
2022/07/25 10:33:51;;;;;;;8.95;7.85;;;;;;;33.08;54.24;98312.06;5092532;28;20225;-80
2022/07/25 10:36:22;;;;;;;9.07;8.18;;;;;;;33.29;54.64;98316.56;5085980;28;20485;-80
2022/07/25 10:38:53;;;;;;;8.55;7.65;;;;;;;33.37;53.11;98315.28;5092914;28;20195;-80
2022/07/25 10:41:25;;;;;;;8.32;7.53;;;;;;;33.53;51.69;98307.97;5092862;28;20194;-80
2022/07/25 10:44:01;;;;;;;8.45;7.45;;;;;;;33.71;50.94;98303.91;5092752;28;20215;-80
2022/07/25 10:46:31;;;;;;;9.63;7.80;;;;;;;33.72;52.44;98308.31;5092708;28;20199;-80
2022/07/25 10:49:04;;;;;;;8.15;7.35;;;;;;;34.19;50.51;98288.13;5058117;28;20704;-80
2022/07/25 10:51:36;;;;;;;8.52;7.70;;;;;;;34.38;49.00;98286.50;5091320;28;20227;-80
2022/07/25 10:54:13;;;;;;;8.15;7.25;;;;;;;34.40;48.06;98290.66;5088189;28;20195;-80
2022/07/25 10:56:52;;;;;;;8.57;7.78;;;;;;;34.65;46.06;98287.09;5092584;28;20270;-80
2022/07/25 10:59:31;;;;;;;7.65;7.03;;;;;;;34.51;47.12;98290.66;5092259;28;20202;-80
2022/07/25 11:02:03;;;;;;;7.47;6.72;;;;;;;34.47;46.73;98279.38;5094238;28;20225;-80
2022/07/25 11:04:32;;;;;;;7.65;6.95;;;;;;;34.23;46.65;98272.72;5086380;28;20279;-80
2022/07/25 11:07:19;;;;;;;7.95;7.07;;;;;;;34.62;45.67;98273.84;5088372;28;20223;-80
2022/07/25 11:09:57;;;;;;;8.00;7.20;;;;;;;34.82;43.74;98274.94;5088444;28;20200;-79
2022/07/25 11:12:26;;;;;;;7.32;6.63;;;;;;;35.02;43.80;98268.59;5090560;28;20218;-80
2022/07/25 11:15:00;;;;;;;8.93;6.60;;;;;;;34.76;43.48;98287.09;5085112;28;20206;-80
2022/07/25 11:17:29;;;;;;;7.40;6.57;;;;;;;34.19;44.48;98271.63;5090345;28;20199;-80
2022/07/25 11:19:59;;;;;;;7.15;6.45;;;;;;;34.92;42.63;98255.69;5088002;28;20280;-80
2022/07/25 11:22:30;;;;;;;6.88;6.28;;;;;;;33.97;43.05;98275.44;5080407;28;20195;-79
2022/07/25 11:25:00;;;;;;;6.70;6.00;;;;;;;34.41;41.82;98258.47;5086270;28;20231;-80
2022/07/25 11:27:30;;;;;;;6.65;6.05;;;;;;;34.82;41.47;98247.41;5086643;28;20200;-80
2022/07/25 11:30:06;;;;;;;7.30;6.63;;;;;;;33.90;44.09;98254.81;5090652;28;20274;-79
2022/07/25 11:32:39;;;;;;;7.00;6.40;;;;;;;34.40;42.75;98245.81;5086022;28;20183;-79
2022/07/25 11:35:08;;;;;;;6.93;6.32;;;;;;;34.18;43.03;98240.56;5090240;28;20223;-79
2022/07/25 11:37:41;;;;;;;7.65;6.93;;;;;;;33.28;45.25;98246.28;5091102;28;20274;-79
2022/07/25 11:40:10;;;;;;;8.48;6.60;;;;;;;34.20;43.92;98246.59;5097399;27;20200;-80
2022/07/25 11:42:40;;;;;;;9.48;6.45;;;;;;;34.85;42.45;98246.88;5096105;28;20192;-80